createdAt,value
2017-11-15T00:02:03.627Z,14.93
2017-11-15T00:04:31.861Z,21.73
2017-11-15T00:06:59.421Z,16.87
2017-11-15T00:12:01.653Z,22.90
2017-11-15T00:14:30.944Z,17.08
2017-11-15T00:16:59.289Z,18.53
2017-11-15T00:19:26.877Z,21.10
2017-11-15T00:21:55.205Z,16.90
2017-11-15T00:24:22.893Z,19.90
2017-11-15T00:26:50.461Z,13.00
2017-11-15T00:29:18.052Z,17.23
2017-11-15T00:31:45.613Z,20.10
2017-11-15T00:34:13.201Z,21.37
2017-11-15T00:36:40.778Z,32.10
2017-11-15T00:39:08.755Z,32.97
2017-11-15T00:41:36.325Z,28.95
2017-11-15T00:44:03.912Z,18.40
2017-11-15T00:46:31.766Z,18.20
2017-11-15T00:48:59.727Z,25.90
2017-11-15T00:51:29.724Z,17.77
2017-11-15T00:53:57.284Z,25.33
2017-11-15T00:56:24.874Z,19.80
2017-11-15T00:58:53.229Z,24.23
2017-11-15T01:01:20.812Z,27.67
2017-11-15T01:03:48.375Z,26.37
2017-11-15T01:06:16.728Z,31.58
2017-11-15T01:08:44.296Z,23.02
2017-11-15T01:11:11.885Z,14.65
2017-11-15T01:13:40.213Z,20.83
2017-11-15T01:16:08.112Z,27.20
2017-11-15T01:18:35.672Z,20.33
2017-11-15T01:21:03.235Z,24.90
2017-11-15T01:23:31.848Z,24.58
2017-11-15T01:26:00.178Z,25.13
2017-11-15T01:28:27.755Z,25.03
2017-11-15T01:30:55.316Z,23.40
2017-11-15T01:33:22.901Z,26.33
2017-11-15T01:35:51.229Z,29.77
2017-11-15T01:38:18.819Z,36.92
2017-11-15T01:40:47.183Z,20.62
2017-11-15T01:43:14.808Z,21.43
2017-11-15T01:45:42.374Z,34.78
2017-11-15T01:48:09.933Z,24.10
2017-11-15T01:50:37.521Z,20.97
2017-11-15T01:53:05.113Z,25.83
2017-11-15T01:55:33.449Z,23.80
2017-11-15T01:58:01.056Z,25.27
2017-11-15T02:03:29.945Z,24.13
2017-11-15T02:05:57.508Z,23.10
2017-11-15T02:08:25.166Z,27.10
2017-11-15T02:10:53.218Z,30.37
2017-11-15T02:13:21.985Z,20.65
2017-11-15T02:15:49.868Z,23.70
2017-11-15T02:18:17.634Z,21.63
2017-11-15T02:20:45.398Z,27.40
2017-11-15T02:23:13.822Z,31.50
2017-11-15T02:25:42.165Z,29.20
2017-11-15T02:28:09.765Z,26.00
2017-11-15T02:30:37.338Z,21.13
2017-11-15T02:33:05.689Z,26.43
2017-11-15T02:35:33.254Z,29.37
2017-11-15T02:38:00.851Z,27.87
2017-11-15T02:40:30.693Z,19.45
2017-11-15T02:42:58.286Z,35.10
2017-11-15T02:45:25.857Z,25.60
2017-11-15T02:47:53.440Z,32.00
2017-11-15T02:50:21.768Z,34.07
2017-11-15T02:52:49.352Z,26.00
2017-11-15T02:55:16.915Z,27.43
2017-11-15T02:57:44.509Z,31.45
2017-11-15T03:00:12.846Z,32.37
2017-11-15T03:02:40.507Z,27.92
2017-11-15T03:05:08.082Z,28.40
2017-11-15T03:07:35.653Z,42.30
2017-11-15T03:10:04.006Z,37.83
2017-11-15T03:12:32.573Z,30.97
2017-11-15T03:15:00.156Z,26.30
2017-11-15T03:17:27.724Z,28.07
2017-11-15T03:19:55.313Z,23.30
2017-11-15T03:22:22.885Z,21.70
2017-11-15T03:24:50.490Z,29.70
2017-11-15T03:27:18.053Z,26.40
2017-11-15T03:29:45.644Z,21.07
2017-11-15T03:32:13.974Z,21.17
2017-11-15T03:34:41.566Z,30.70
2017-11-15T03:37:09.129Z,22.70
2017-11-15T03:39:36.718Z,34.40
2017-11-15T03:42:04.292Z,39.97
2017-11-15T03:44:31.877Z,30.80
2017-11-15T03:46:59.448Z,34.07
2017-11-15T03:49:27.037Z,31.77
2017-11-15T03:51:54.877Z,24.90
2017-11-15T03:54:22.461Z,28.97
2017-11-15T03:56:50.029Z,25.17
2017-11-15T03:59:18.398Z,38.40
2017-11-15T04:01:46.061Z,33.10
2017-11-15T04:04:13.625Z,33.20
2017-11-15T04:06:41.193Z,26.33
2017-11-15T04:09:09.549Z,32.53
2017-11-15T04:11:37.117Z,29.08
2017-11-15T04:14:04.707Z,42.63
2017-11-15T04:16:33.046Z,30.40
2017-11-15T04:19:00.640Z,42.23
2017-11-15T04:21:30.119Z,32.03
2017-11-15T04:23:57.725Z,43.77
2017-11-15T04:26:25.292Z,29.43
2017-11-15T04:28:52.892Z,40.42
2017-11-15T04:31:20.456Z,30.93
2017-11-15T04:33:48.579Z,46.88
2017-11-15T04:36:16.140Z,42.67
2017-11-15T04:38:43.716Z,34.40
2017-11-15T04:41:11.312Z,39.10
2017-11-15T04:43:38.900Z,35.30
2017-11-15T04:46:07.266Z,41.43
2017-11-15T04:48:34.836Z,40.80
2017-11-15T04:51:02.421Z,45.50
2017-11-15T04:53:30.838Z,44.75
2017-11-15T04:55:58.461Z,43.10
2017-11-15T04:58:26.028Z,45.15
2017-11-15T05:00:53.593Z,51.83
2017-11-15T05:03:21.184Z,39.10
2017-11-15T05:05:48.745Z,50.75
2017-11-15T05:08:16.341Z,39.10
2017-11-15T05:10:43.914Z,46.23
2017-11-15T05:13:12.282Z,42.80
2017-11-15T05:15:39.847Z,34.93
2017-11-15T05:18:08.557Z,29.37
2017-11-15T05:20:36.898Z,36.30
2017-11-15T05:23:04.476Z,47.63
2017-11-15T05:25:32.833Z,56.63
2017-11-15T05:28:00.406Z,34.53
2017-11-15T05:30:28.001Z,43.43
2017-11-15T05:32:55.569Z,35.07
2017-11-15T05:35:23.247Z,32.73
2017-11-15T05:37:50.818Z,41.50
2017-11-15T05:40:18.414Z,37.07
2017-11-15T05:42:45.993Z,42.37
2017-11-15T05:45:14.444Z,50.43
2017-11-15T05:47:42.013Z,60.60
2017-11-15T05:50:09.604Z,53.30
2017-11-15T05:52:37.169Z,50.40
2017-11-15T05:55:04.897Z,52.47
2017-11-15T05:57:32.465Z,49.20
2017-11-15T06:00:00.029Z,46.00
2017-11-15T06:02:29.305Z,37.10
2017-11-15T06:04:56.879Z,46.35
2017-11-15T06:07:24.472Z,54.87
2017-11-15T06:09:52.851Z,41.40
2017-11-15T06:12:21.205Z,45.15
2017-11-15T06:14:48.795Z,40.57
2017-11-15T06:17:16.391Z,35.57
2017-11-15T06:19:44.069Z,44.67
2017-11-15T06:22:11.734Z,39.10
2017-11-15T06:24:39.372Z,49.83
2017-11-15T06:27:07.700Z,54.93
2017-11-15T06:29:36.111Z,67.32
2017-11-15T06:32:04.544Z,42.37
2017-11-15T06:34:32.802Z,65.27
2017-11-15T06:37:00.722Z,48.57
2017-11-15T06:39:30.788Z,54.65
2017-11-15T06:41:58.395Z,62.03
2017-11-15T06:44:26.724Z,72.40
2017-11-15T06:46:54.353Z,49.77
2017-11-15T06:49:21.938Z,54.27
2017-11-15T06:51:49.599Z,67.77
2017-11-15T06:54:17.189Z,52.60
2017-11-15T06:56:44.758Z,56.70
2017-11-15T06:59:12.364Z,71.20
2017-11-15T07:01:39.936Z,45.60
2017-11-15T07:04:07.561Z,64.17
2017-11-15T07:06:35.898Z,107.97
2017-11-15T07:09:03.508Z,72.70
2017-11-15T07:11:32.681Z,44.87
2017-11-15T07:14:00.445Z,55.50
2017-11-15T07:16:28.935Z,60.00
2017-11-15T07:18:57.269Z,75.47
2017-11-15T07:21:24.861Z,77.87
2017-11-15T07:23:53.941Z,60.13
2017-11-15T07:26:21.537Z,73.73
2017-11-15T07:28:49.878Z,68.53
2017-11-15T07:31:17.470Z,91.43
2017-11-15T07:33:45.070Z,53.40
2017-11-15T07:36:12.663Z,81.47
2017-11-15T07:38:40.233Z,57.38
2017-11-15T07:41:07.852Z,78.00
2017-11-15T07:43:35.417Z,57.00
2017-11-15T07:46:02.990Z,59.67
2017-11-15T07:48:31.914Z,72.93
2017-11-15T07:50:59.485Z,45.73
2017-11-15T07:53:27.073Z,63.70
2017-11-15T07:55:55.473Z,64.37
2017-11-15T07:58:23.066Z,59.13
2017-11-15T08:00:50.708Z,63.73
2017-11-15T08:03:18.325Z,70.50
2017-11-15T08:05:46.661Z,57.47
2017-11-15T08:08:14.228Z,75.60
2017-11-15T08:10:41.824Z,54.03
2017-11-15T08:13:10.158Z,62.53
2017-11-15T08:15:37.785Z,74.07
2017-11-15T08:18:05.422Z,88.20
2017-11-15T08:20:33.789Z,58.67
2017-11-15T08:23:01.358Z,55.43
2017-11-15T08:25:30.753Z,56.13
2017-11-15T08:27:58.426Z,54.63
2017-11-15T08:30:26.077Z,52.20
2017-11-15T08:32:53.649Z,44.50
2017-11-15T08:35:21.410Z,65.53
2017-11-15T08:37:48.985Z,55.00
2017-11-15T08:40:17.313Z,70.57
2017-11-15T08:42:44.905Z,51.05
2017-11-15T08:45:12.482Z,36.80
2017-11-15T08:47:40.841Z,48.40
2017-11-15T08:50:08.405Z,65.93
2017-11-15T08:52:36.778Z,55.78
2017-11-15T08:55:04.353Z,65.37
2017-11-15T08:57:31.993Z,44.30
2017-11-15T08:59:59.572Z,45.10
2017-11-15T09:02:29.564Z,65.23
2017-11-15T09:04:57.156Z,49.73
2017-11-15T09:07:25.486Z,41.47
2017-11-15T09:09:53.086Z,41.17
2017-11-15T09:12:20.659Z,66.40
2017-11-15T09:14:49.194Z,39.17
2017-11-15T09:17:17.285Z,57.42
2017-11-15T09:19:44.862Z,59.53
2017-11-15T09:22:12.457Z,59.90
2017-11-15T09:24:40.029Z,53.87
2017-11-15T09:27:07.623Z,60.00
2017-11-15T09:29:35.189Z,44.97
2017-11-15T09:32:02.784Z,52.37
2017-11-15T09:34:32.553Z,44.70
2017-11-15T09:37:00.165Z,49.60
2017-11-15T09:39:29.418Z,50.43
2017-11-15T09:41:57.205Z,55.27
2017-11-15T09:44:24.769Z,38.80
2017-11-15T09:46:53.841Z,47.77
2017-11-15T09:49:21.469Z,47.70
2017-11-15T09:51:49.088Z,53.27
2017-11-15T09:54:16.681Z,59.63
2017-11-15T09:56:44.249Z,50.45
2017-11-15T09:59:11.837Z,56.53
2017-11-15T10:01:39.404Z,52.15
2017-11-15T10:04:06.996Z,36.17
2017-11-15T10:06:34.574Z,48.40
2017-11-15T10:09:02.937Z,42.57
2017-11-15T10:11:32.717Z,47.85
2017-11-15T10:14:00.310Z,36.73
2017-11-15T10:16:29.581Z,34.23
2017-11-15T10:18:57.373Z,47.13
2017-11-15T10:21:24.941Z,39.23
2017-11-15T10:23:53.278Z,34.33
2017-11-15T10:26:20.877Z,46.87
2017-11-15T10:28:48.450Z,43.08
2017-11-15T10:31:16.850Z,41.03
2017-11-15T10:33:44.412Z,44.37
2017-11-15T10:36:12.242Z,59.43
2017-11-15T10:38:39.826Z,51.97
2017-11-15T10:41:08.372Z,45.30
2017-11-15T10:43:35.969Z,49.43
2017-11-15T10:46:04.305Z,40.23
2017-11-15T10:48:31.898Z,51.13
2017-11-15T10:51:00.431Z,39.70
2017-11-15T10:53:28.950Z,51.83
2017-11-15T10:55:57.304Z,38.97
2017-11-15T10:58:24.905Z,45.70
2017-11-15T11:00:53.242Z,35.73
2017-11-15T11:03:20.829Z,48.03
2017-11-15T11:05:48.392Z,41.50
2017-11-15T11:08:15.993Z,37.90
2017-11-15T11:10:43.565Z,42.17
2017-11-15T11:13:11.381Z,36.50
2017-11-15T11:15:38.945Z,40.10
2017-11-15T11:18:07.289Z,34.10
2017-11-15T11:20:34.987Z,36.22
2017-11-15T11:23:03.366Z,39.87
2017-11-15T11:25:32.557Z,34.25
2017-11-15T11:28:00.895Z,21.57
2017-11-15T11:30:30.650Z,34.70
2017-11-15T11:32:58.222Z,36.90
2017-11-15T11:35:26.585Z,38.30
2017-11-15T11:37:55.082Z,39.97
2017-11-15T11:40:23.442Z,30.80
2017-11-15T11:42:51.792Z,30.93
2017-11-15T11:45:19.392Z,31.93
2017-11-15T11:47:47.734Z,33.45
2017-11-15T11:50:15.343Z,30.27
2017-11-15T11:52:43.681Z,26.10
2017-11-15T11:55:11.247Z,23.77
2017-11-15T11:57:38.857Z,27.42
2017-11-15T12:00:06.453Z,41.60
2017-11-15T12:02:34.057Z,32.72
2017-11-15T12:05:01.630Z,37.80
2017-11-15T12:07:31.610Z,26.48
2017-11-15T12:09:59.215Z,34.43
2017-11-15T12:12:27.545Z,35.40
2017-11-15T12:14:55.138Z,48.30
2017-11-15T12:17:22.705Z,32.43
2017-11-15T12:19:51.071Z,24.60
2017-11-15T12:22:18.642Z,29.77
2017-11-15T12:24:46.266Z,34.47
2017-11-15T12:27:13.857Z,31.60
2017-11-15T12:29:43.058Z,35.95
2017-11-15T12:32:10.901Z,33.33
2017-11-15T12:34:38.589Z,26.50
2017-11-15T12:37:06.162Z,32.37
2017-11-15T12:39:34.529Z,24.90
2017-11-15T12:42:02.901Z,28.30
2017-11-15T12:44:32.517Z,27.23
2017-11-15T12:47:00.179Z,30.47
2017-11-15T12:49:27.944Z,28.47
2017-11-15T12:51:55.513Z,24.73
2017-11-15T12:54:23.849Z,18.20
2017-11-15T12:56:51.433Z,23.13
2017-11-15T12:59:19.006Z,23.07
2017-11-15T13:01:46.640Z,26.43
2017-11-15T13:04:14.206Z,23.80
2017-11-15T13:06:41.784Z,30.80
2017-11-15T13:09:09.382Z,25.50
2017-11-15T13:11:36.949Z,22.50
2017-11-15T13:14:05.483Z,33.67
2017-11-15T13:16:33.054Z,22.17
2017-11-15T13:19:01.049Z,24.30
2017-11-15T13:21:29.880Z,25.98
2017-11-15T13:23:57.481Z,34.17
2017-11-15T13:26:25.831Z,31.37
2017-11-15T13:28:53.544Z,27.13
2017-11-15T13:31:21.887Z,32.87
2017-11-15T13:33:49.465Z,27.57
2017-11-15T13:36:17.832Z,28.67
2017-11-15T13:38:45.397Z,24.17
2017-11-15T13:41:12.989Z,31.70
2017-11-15T13:43:40.552Z,19.98
2017-11-15T13:46:08.145Z,20.00
2017-11-15T13:48:35.721Z,22.73
2017-11-15T13:51:03.307Z,26.87
2017-11-15T13:53:32.275Z,25.95
2017-11-15T13:55:59.869Z,26.50
2017-11-15T13:58:29.124Z,34.90
2017-11-15T14:00:56.826Z,22.40
2017-11-15T14:03:25.162Z,32.47
2017-11-15T14:05:52.735Z,31.67
2017-11-15T14:08:20.334Z,25.30
2017-11-15T14:10:48.669Z,29.00
2017-11-15T14:13:16.357Z,32.53
2017-11-15T14:15:43.925Z,29.33
2017-11-15T14:18:11.892Z,27.53
2017-11-15T14:20:39.461Z,25.17
2017-11-15T14:23:07.792Z,30.93
2017-11-15T14:25:35.389Z,28.77
2017-11-15T14:28:02.958Z,28.67
2017-11-15T14:30:32.856Z,30.93
2017-11-15T14:33:00.422Z,24.73
2017-11-15T14:35:28.942Z,26.23
2017-11-15T14:37:56.513Z,27.07
2017-11-15T14:40:24.147Z,24.73
2017-11-15T14:42:52.490Z,41.50
2017-11-15T14:45:20.060Z,33.97
2017-11-15T14:47:47.654Z,37.72
2017-11-15T14:50:16.454Z,34.93
2017-11-15T14:52:44.049Z,41.78
2017-11-15T14:55:11.626Z,31.50
2017-11-15T14:57:39.222Z,30.60
2017-11-15T15:00:06.805Z,41.43
2017-11-15T15:02:34.392Z,44.37
2017-11-15T15:05:01.990Z,42.73
2017-11-15T15:07:30.793Z,47.43
2017-11-15T15:09:59.134Z,38.50
2017-11-15T15:12:26.707Z,44.50
2017-11-15T15:14:54.310Z,47.43
2017-11-15T15:17:21.885Z,37.33
2017-11-15T15:19:49.496Z,51.78
2017-11-15T15:22:18.574Z,52.23
2017-11-15T15:24:46.171Z,41.50
2017-11-15T15:27:14.506Z,52.83
2017-11-15T15:29:42.102Z,65.62
2017-11-15T15:32:09.671Z,59.53
2017-11-15T15:34:38.033Z,58.90
2017-11-15T15:37:05.601Z,57.20
2017-11-15T15:39:33.938Z,47.37
2017-11-15T15:42:01.531Z,55.60
2017-11-15T15:44:31.621Z,58.63
2017-11-15T15:46:59.215Z,51.27
2017-11-15T15:49:26.789Z,64.23
2017-11-15T15:51:55.149Z,53.20
2017-11-15T15:54:22.721Z,55.27
2017-11-15T15:56:50.330Z,48.43
2017-11-15T15:59:17.914Z,63.33
2017-11-15T16:01:45.486Z,56.10
2017-11-15T16:04:13.077Z,55.83
2017-11-15T16:06:41.409Z,61.13
2017-11-15T16:09:09.009Z,52.50
2017-11-15T16:11:37.344Z,57.93
2017-11-15T16:14:04.937Z,57.03
2017-11-15T16:16:32.512Z,80.27
2017-11-15T16:19:00.658Z,64.13
2017-11-15T16:21:29.157Z,70.20
2017-11-15T16:23:57.494Z,48.87
2017-11-15T16:26:25.090Z,46.43
2017-11-15T16:28:52.974Z,71.47
2017-11-15T16:31:21.304Z,48.00
2017-11-15T16:33:49.675Z,75.62
2017-11-15T16:36:17.275Z,52.37
2017-11-15T16:38:46.358Z,68.85
2017-11-15T16:41:14.230Z,55.28
2017-11-15T16:43:41.807Z,58.40
2017-11-15T16:46:09.409Z,66.77
2017-11-15T16:48:36.978Z,60.60
2017-11-15T16:51:04.697Z,52.53
2017-11-15T16:53:32.266Z,63.73
2017-11-15T16:56:00.608Z,52.97
2017-11-15T16:58:29.122Z,72.57
2017-11-15T17:00:57.504Z,71.17
2017-11-15T17:03:25.102Z,60.27
2017-11-15T17:05:52.673Z,71.60
2017-11-15T17:08:20.276Z,73.83
2017-11-15T17:10:47.846Z,80.10
2017-11-15T17:13:16.945Z,81.70
2017-11-15T17:15:45.277Z,77.80
2017-11-15T17:18:13.158Z,65.73
2017-11-15T17:20:40.733Z,59.85
2017-11-15T17:23:08.302Z,59.73
2017-11-15T17:25:35.898Z,70.18
2017-11-15T17:28:03.474Z,57.77
2017-11-15T17:30:32.720Z,73.10
2017-11-15T17:33:00.284Z,66.73
2017-11-15T17:35:27.878Z,59.50
2017-11-15T17:37:55.477Z,62.40
2017-11-15T17:40:23.068Z,69.53
2017-11-15T17:42:50.642Z,63.23
2017-11-15T17:45:19.009Z,55.27
2017-11-15T17:47:46.585Z,46.30
2017-11-15T17:50:15.010Z,60.27
2017-11-15T17:52:42.586Z,47.93
2017-11-15T17:55:10.177Z,50.17
2017-11-15T17:57:39.310Z,52.28
2017-11-15T18:00:06.929Z,61.95
2017-11-15T18:02:34.503Z,180.50
2017-11-15T18:05:02.851Z,300.47
2017-11-15T18:07:32.600Z,328.52
2017-11-15T18:10:00.932Z,263.27
2017-11-15T18:12:30.849Z,455.55
2017-11-15T18:14:58.428Z,399.30
2017-11-15T18:17:26.129Z,375.43
2017-11-15T18:19:53.768Z,345.53
2017-11-15T18:22:22.121Z,328.63
2017-11-15T18:24:49.721Z,472.37
2017-11-15T18:27:18.069Z,414.03
2017-11-15T18:29:45.641Z,262.60
2017-11-15T18:32:13.593Z,402.07
2017-11-15T18:34:41.181Z,369.13
2017-11-15T18:37:08.777Z,355.47
2017-11-15T18:39:36.346Z,368.60
2017-11-15T18:42:03.944Z,328.60
2017-11-15T18:44:33.164Z,358.68
2017-11-15T18:47:00.759Z,386.20
2017-11-15T18:49:30.712Z,305.00
2017-11-15T18:51:58.309Z,390.83
2017-11-15T18:54:26.646Z,260.52
2017-11-15T18:56:54.533Z,243.37
2017-11-15T18:59:23.616Z,242.43
2017-11-15T19:01:51.184Z,246.30
2017-11-15T19:04:18.782Z,293.93
2017-11-15T19:06:47.117Z,254.03
2017-11-15T19:09:14.709Z,175.77
2017-11-15T19:11:43.050Z,224.05
2017-11-15T19:14:10.677Z,153.00
2017-11-15T19:16:38.259Z,228.20
2017-11-15T19:19:05.832Z,155.98
2017-11-15T19:21:33.429Z,142.23
2017-11-15T19:24:06.875Z,94.83
2017-11-15T19:26:34.525Z,284.00
2017-11-15T19:29:02.129Z,248.37
2017-11-15T19:31:31.733Z,178.60
2017-11-15T19:33:59.319Z,180.07
2017-11-15T19:36:26.889Z,209.73
2017-11-15T19:38:55.259Z,332.03
2017-11-15T19:41:23.609Z,206.70
2017-11-15T19:43:51.205Z,322.57
2017-11-15T19:46:19.545Z,215.52
2017-11-15T19:48:47.142Z,268.98
2017-11-15T19:51:15.517Z,312.90
2017-11-15T19:53:43.112Z,341.57
2017-11-15T19:56:10.680Z,363.70
2017-11-15T19:58:38.586Z,409.05
2017-11-15T20:01:06.169Z,226.37
2017-11-15T20:03:33.782Z,269.93
2017-11-15T20:06:01.353Z,309.43
2017-11-15T20:08:30.665Z,280.47
2017-11-15T20:10:58.264Z,339.40
2017-11-15T20:13:26.610Z,267.30
2017-11-15T20:15:54.214Z,267.17
2017-11-15T20:18:22.549Z,316.30
2017-11-15T20:20:50.162Z,204.37
2017-11-15T20:23:17.789Z,309.70
2017-11-15T20:25:45.401Z,310.00
2017-11-15T20:28:12.973Z,308.73
2017-11-15T20:30:40.546Z,328.57
2017-11-15T20:33:08.141Z,236.40
2017-11-15T20:35:35.714Z,338.62
2017-11-15T20:38:04.077Z,302.50
2017-11-15T20:40:33.356Z,282.43
2017-11-15T20:43:00.949Z,302.83
2017-11-15T20:45:31.029Z,281.23
2017-11-15T20:47:58.646Z,303.13
2017-11-15T20:50:27.061Z,266.43
2017-11-15T20:52:54.697Z,334.13
2017-11-15T20:55:22.269Z,322.37
2017-11-15T20:57:49.857Z,201.83
2017-11-15T21:00:17.458Z,286.07
2017-11-15T21:02:45.794Z,322.95
2017-11-15T21:05:13.390Z,309.13
2017-11-15T21:07:41.737Z,324.50
2017-11-15T21:10:09.328Z,266.60
2017-11-15T21:12:36.921Z,298.80
2017-11-15T21:15:04.521Z,223.30
2017-11-15T21:17:32.089Z,210.90
2017-11-15T21:19:59.722Z,310.10
2017-11-15T21:22:27.297Z,200.60
2017-11-15T21:24:54.871Z,271.23
2017-11-15T21:27:22.469Z,284.10
2017-11-15T21:29:50.807Z,250.20
2017-11-15T21:32:18.405Z,173.40
2017-11-15T21:34:46.745Z,264.33
2017-11-15T21:37:14.364Z,226.93
2017-11-15T21:39:41.933Z,336.30
2017-11-15T21:42:09.525Z,263.30
2017-11-15T21:44:37.889Z,244.37
2017-11-15T21:47:05.485Z,147.83
2017-11-15T21:49:33.060Z,281.00
2017-11-15T21:52:01.549Z,200.80
2017-11-15T21:54:31.625Z,253.57
2017-11-15T21:56:59.203Z,242.53
2017-11-15T21:59:26.805Z,258.80
2017-11-15T22:01:54.445Z,204.37
2017-11-15T22:04:22.305Z,204.33
2017-11-15T22:06:49.875Z,153.38
2017-11-15T22:09:18.265Z,148.97
2017-11-15T22:11:46.797Z,227.80
2017-11-15T22:14:14.373Z,267.83
2017-11-15T22:16:41.945Z,246.10
2017-11-15T22:19:09.541Z,208.67
2017-11-15T22:21:37.173Z,244.27
2017-11-15T22:24:04.777Z,286.67
2017-11-15T22:26:32.346Z,218.53
2017-11-15T22:28:59.944Z,151.98
2017-11-15T22:31:27.530Z,191.80
2017-11-15T22:33:55.893Z,157.05
2017-11-15T22:36:23.473Z,180.93
2017-11-15T22:38:52.046Z,236.50
2017-11-15T22:41:19.609Z,176.90
2017-11-15T22:43:47.954Z,156.23
2017-11-15T22:46:15.570Z,156.47
2017-11-15T22:48:43.910Z,141.80
2017-11-15T22:51:11.506Z,139.83
2017-11-15T22:53:39.845Z,158.03
2017-11-15T22:56:07.445Z,168.93
2017-11-15T22:58:35.827Z,173.47
2017-11-15T23:01:04.184Z,187.30
2017-11-15T23:03:32.665Z,147.50
2017-11-15T23:06:00.323Z,179.23
2017-11-15T23:08:27.896Z,174.73
2017-11-15T23:10:56.262Z,246.40
2017-11-15T23:13:23.835Z,258.17
2017-11-15T23:15:52.206Z,320.20
2017-11-15T23:18:19.789Z,337.60
2017-11-15T23:20:48.358Z,333.53
2017-11-15T23:23:16.697Z,375.15
2017-11-15T23:25:44.265Z,355.43
2017-11-15T23:28:11.861Z,334.67
2017-11-15T23:30:40.237Z,295.60
2017-11-15T23:33:08.605Z,182.17
2017-11-15T23:35:36.193Z,177.17
2017-11-15T23:38:04.658Z,111.07
2017-11-15T23:40:32.232Z,127.90
2017-11-15T23:43:00.710Z,65.97
2017-11-15T23:45:30.712Z,211.48
2017-11-15T23:47:58.273Z,81.03
2017-11-15T23:50:25.872Z,89.60
2017-11-15T23:52:53.442Z,74.20
2017-11-15T23:55:21.033Z,94.70
2017-11-15T23:57:48.604Z,77.12
